createdAt,value
2022-08-16T00:01:15.693Z,19.35
2022-08-16T00:02:15.755Z,19.45
2022-08-16T00:03:15.752Z,19.43
2022-08-16T00:04:15.778Z,19.34
2022-08-16T00:05:15.809Z,19.40
2022-08-16T00:06:15.838Z,19.32
2022-08-16T00:07:15.865Z,19.34
2022-08-16T00:08:37.100Z,19.37
2022-08-16T00:09:15.924Z,19.37
2022-08-16T00:10:20.945Z,19.38
2022-08-16T00:11:16.572Z,19.38
2022-08-16T00:13:08.586Z,19.37
2022-08-16T00:14:08.977Z,19.40
2022-08-16T00:15:11.606Z,19.31
2022-08-16T00:16:57.991Z,19.32
2022-08-16T00:17:18.760Z,19.23
2022-08-16T00:18:08.732Z,19.15
2022-08-16T00:19:08.760Z,19.27
2022-08-16T00:20:08.794Z,19.23
2022-08-16T00:21:11.854Z,19.20
2022-08-16T00:22:13.468Z,19.19
2022-08-16T00:23:08.879Z,19.12
2022-08-16T00:24:11.380Z,19.05
2022-08-16T00:25:09.140Z,18.99
2022-08-16T00:26:36.696Z,18.97
2022-08-16T00:27:08.998Z,18.96
2022-08-16T00:28:09.029Z,19.00
2022-08-16T00:29:09.051Z,18.97
2022-08-16T00:30:28.522Z,18.99
2022-08-16T00:31:09.111Z,18.96
2022-08-16T00:32:11.075Z,18.97
2022-08-16T00:33:09.169Z,18.89
2022-08-16T00:34:09.201Z,18.90
2022-08-16T00:35:13.219Z,18.89
2022-08-16T00:36:09.260Z,18.87
2022-08-16T00:37:09.286Z,18.84
2022-08-16T00:38:41.172Z,18.90
2022-08-16T00:39:09.347Z,18.91
2022-08-16T00:40:09.396Z,18.90
2022-08-16T00:43:11.741Z,18.94
2022-08-16T00:44:09.493Z,18.89
2022-08-16T00:48:44.004Z,19.13
2022-08-16T00:49:39.212Z,19.19
2022-08-16T00:50:36.819Z,19.13
2022-08-16T00:51:35.886Z,19.13
2022-08-16T01:01:23.745Z,18.96
2022-08-16T01:02:31.921Z,19.13
2022-08-16T01:03:31.669Z,18.97
2022-08-16T01:04:29.605Z,18.96
2022-08-16T01:05:23.961Z,18.91
2022-08-16T01:06:39.736Z,19.07
2022-08-16T01:07:23.889Z,19.05
2022-08-16T01:08:36.228Z,19.02
2022-08-16T01:09:23.948Z,18.96
2022-08-16T01:10:32.268Z,18.99
2022-08-16T01:11:24.031Z,18.99
2022-08-16T01:12:26.602Z,18.97
2022-08-16T01:13:24.067Z,18.89
2022-08-16T01:14:29.768Z,18.86
2022-08-16T01:15:24.224Z,18.91
2022-08-16T01:16:24.153Z,18.84
2022-08-16T01:17:24.437Z,18.82
2022-08-16T01:18:39.797Z,18.87
2022-08-16T01:19:24.244Z,18.89
2022-08-16T01:20:30.191Z,18.86
2022-08-16T01:21:24.301Z,18.82
2022-08-16T01:22:46.776Z,18.81
2022-08-16T01:23:24.360Z,18.79
2022-08-16T01:24:51.688Z,18.81
2022-08-16T01:25:24.420Z,18.76
2022-08-16T01:26:34.686Z,18.74
2022-08-16T01:27:24.480Z,18.74
2022-08-16T01:28:24.506Z,18.76
2022-08-16T01:29:57.329Z,18.74
2022-08-16T01:30:26.453Z,18.74
2022-08-16T01:31:30.992Z,18.76
2022-08-16T01:32:33.262Z,18.76
2022-08-16T01:33:24.655Z,18.72
2022-08-16T01:34:25.486Z,18.72
2022-08-16T01:35:24.714Z,18.60
2022-08-16T01:36:26.689Z,18.71
2022-08-16T01:37:24.774Z,18.71
2022-08-16T01:38:25.773Z,18.74
2022-08-16T01:39:24.878Z,18.63
2022-08-16T01:40:24.861Z,18.69
2022-08-16T01:41:24.892Z,18.74
2022-08-16T01:42:25.442Z,18.61
2022-08-16T01:43:24.949Z,18.66
2022-08-16T01:44:24.977Z,18.63
2022-08-16T01:45:40.729Z,18.54
2022-08-16T01:46:37.101Z,18.56
2022-08-16T01:47:25.068Z,18.57
2022-08-16T01:48:25.095Z,18.56
2022-08-16T01:49:25.127Z,18.54
2022-08-16T01:50:41.760Z,18.56
2022-08-16T01:51:25.186Z,18.51
2022-08-16T01:52:29.533Z,18.38
2022-08-16T01:53:25.247Z,18.53
2022-08-16T01:54:30.868Z,18.38
2022-08-16T01:55:25.303Z,18.41
2022-08-16T01:56:25.539Z,18.50
2022-08-16T01:57:25.363Z,18.41
2022-08-16T01:58:25.388Z,18.35
2022-08-16T01:59:25.416Z,18.38
2022-08-16T02:00:29.185Z,18.34
2022-08-16T02:01:25.976Z,18.35
2022-08-16T02:02:28.612Z,18.36
2022-08-16T02:03:26.880Z,18.36
2022-08-16T02:04:40.107Z,18.24
2022-08-16T02:06:34.186Z,18.31
2022-08-16T02:07:25.670Z,18.32
2022-08-16T02:08:33.344Z,18.44
2022-08-16T02:10:25.921Z,18.38
2022-08-16T02:11:25.782Z,18.47
2022-08-16T02:12:42.107Z,18.42
2022-08-16T02:14:26.645Z,18.39
2022-08-16T02:15:26.070Z,18.35
2022-08-16T02:20:27.960Z,18.27
2022-08-16T02:26:27.139Z,18.39
2022-08-16T02:32:49.361Z,18.47
2022-08-16T02:34:33.039Z,18.53
2022-08-16T02:35:26.489Z,18.38
2022-08-16T02:37:51.732Z,18.47
2022-08-16T02:38:26.575Z,18.36
2022-08-16T02:39:26.657Z,18.36
2022-08-16T02:41:26.864Z,18.44
2022-08-16T02:42:26.689Z,18.36
2022-08-16T02:43:27.453Z,18.38
2022-08-16T02:44:28.582Z,18.39
2022-08-16T02:46:09.331Z,18.34
2022-08-16T02:48:30.092Z,18.26
2022-08-16T02:51:35.756Z,18.27
2022-08-16T02:52:35.726Z,18.27
2022-08-16T02:54:35.377Z,18.27
2022-08-16T02:55:40.792Z,18.32
2022-08-16T02:56:35.436Z,18.21
2022-08-16T02:57:35.475Z,18.20
2022-08-16T02:58:35.498Z,18.23
2022-08-16T02:59:39.863Z,18.21
2022-08-16T03:00:35.553Z,18.17
2022-08-16T03:02:35.611Z,18.13
2022-08-16T03:04:49.815Z,18.11
2022-08-16T03:05:39.381Z,18.13
2022-08-16T03:06:42.512Z,18.19
2022-08-16T03:11:35.609Z,18.23
2022-08-16T03:12:36.769Z,18.13
2022-08-16T03:14:34.226Z,18.08
2022-08-16T03:15:33.946Z,18.16
2022-08-16T03:17:33.804Z,18.19
2022-08-16T03:18:34.642Z,18.13
2022-08-16T03:19:47.575Z,18.11
2022-08-16T03:20:34.310Z,18.11
2022-08-16T03:21:37.737Z,18.16
2022-08-16T03:24:34.212Z,18.06
2022-08-16T03:25:44.073Z,18.06
2022-08-16T03:30:33.979Z,17.98
2022-08-16T03:32:07.827Z,17.95
2022-08-16T03:38:01.685Z,17.92
2022-08-16T03:42:34.334Z,18.01
2022-08-16T03:45:34.419Z,17.96
2022-08-16T03:47:35.286Z,17.96
2022-08-16T03:48:39.580Z,17.99
2022-08-16T03:50:34.565Z,17.98
2022-08-16T03:51:35.290Z,18.01
2022-08-16T03:52:34.828Z,17.95
2022-08-16T03:54:35.955Z,17.95
2022-08-16T03:55:45.355Z,17.92
2022-08-16T03:58:34.803Z,17.94
2022-08-16T03:59:34.827Z,17.99
2022-08-16T04:00:41.084Z,17.96
2022-08-16T04:01:35.267Z,17.99
2022-08-16T04:11:37.598Z,17.87
2022-08-16T04:15:36.307Z,17.86
2022-08-16T04:23:36.539Z,18.02
2022-08-16T04:24:42.028Z,17.86
2022-08-16T04:27:35.647Z,17.98
2022-08-16T04:30:36.443Z,17.99
2022-08-16T04:42:38.356Z,18.13
2022-08-16T04:55:38.325Z,18.29
2022-08-16T05:25:41.173Z,19.13
2022-08-16T05:26:37.359Z,19.19
2022-08-16T05:32:45.829Z,19.42
2022-08-16T05:33:37.587Z,19.43
2022-08-16T05:34:37.602Z,19.50
2022-08-16T05:35:37.829Z,19.64
2022-08-16T05:37:39.713Z,19.78
2022-08-16T05:38:39.945Z,19.83
2022-08-16T05:39:40.698Z,19.92
2022-08-16T05:40:37.772Z,19.82
2022-08-16T05:41:45.667Z,19.85
2022-08-16T05:44:38.093Z,19.93
2022-08-16T05:45:38.128Z,19.92
2022-08-16T05:49:39.727Z,20.02
2022-08-16T05:50:38.376Z,20.07
2022-08-16T05:51:40.127Z,20.12
2022-08-16T05:52:38.128Z,20.12
2022-08-16T05:53:38.772Z,20.20
2022-08-16T05:54:40.895Z,20.26
2022-08-16T05:57:38.481Z,20.41
2022-08-16T05:59:39.144Z,20.46
2022-08-16T06:01:39.359Z,20.57
2022-08-16T06:03:39.794Z,20.72
2022-08-16T06:04:44.887Z,20.90
2022-08-16T06:13:41.978Z,24.08
2022-08-16T06:14:40.060Z,24.30
2022-08-16T06:15:41.852Z,24.58
2022-08-16T06:16:41.865Z,24.61
2022-08-16T06:17:42.486Z,25.01
2022-08-16T06:18:38.893Z,25.38
2022-08-16T06:19:42.772Z,25.74
2022-08-16T06:26:57.711Z,26.97
2022-08-16T06:27:14.246Z,27.19
2022-08-16T06:28:17.055Z,27.01
2022-08-16T06:29:14.715Z,26.90
2022-08-16T06:30:19.731Z,27.00
2022-08-16T06:32:34.591Z,26.64
2022-08-16T06:32:56.969Z,26.78
2022-08-16T06:33:57.004Z,26.75
2022-08-16T06:35:02.752Z,26.78
2022-08-16T06:35:59.553Z,27.01
2022-08-16T06:36:59.569Z,27.15
2022-08-16T06:37:57.140Z,27.31
2022-08-16T06:38:57.173Z,27.64
2022-08-16T06:39:57.258Z,27.69
2022-08-16T06:40:57.444Z,28.03
2022-08-16T06:41:57.277Z,28.09
2022-08-16T06:42:57.714Z,28.30
2022-08-16T06:43:57.348Z,28.21
2022-08-16T06:44:57.393Z,28.64
2022-08-16T06:45:57.419Z,28.75
2022-08-16T06:46:57.455Z,29.08
2022-08-16T06:47:57.492Z,28.80
2022-08-16T06:49:00.755Z,28.75
2022-08-16T06:49:57.564Z,29.14
2022-08-16T06:50:57.601Z,29.29
2022-08-16T06:52:03.065Z,29.52
2022-08-16T06:53:00.986Z,29.63
2022-08-16T06:53:57.926Z,29.79
2022-08-16T06:55:45.419Z,29.82
2022-08-16T06:56:45.755Z,29.81
2022-08-16T06:57:45.393Z,29.84
2022-08-16T06:58:45.635Z,29.85
2022-08-16T06:59:52.514Z,29.89
2022-08-16T07:00:45.594Z,30.03
2022-08-16T07:01:54.268Z,30.00
2022-08-16T07:02:51.643Z,29.87
2022-08-16T07:03:55.806Z,29.50
2022-08-16T07:04:45.664Z,29.84
2022-08-16T07:05:45.699Z,29.69
2022-08-16T07:06:45.741Z,29.39
2022-08-16T07:07:45.779Z,29.30
2022-08-16T07:08:45.831Z,29.32
2022-08-16T07:09:49.288Z,29.02
2022-08-16T07:10:47.109Z,29.11
2022-08-16T07:11:51.623Z,29.42
2022-08-16T07:13:03.388Z,29.60
2022-08-16T07:14:24.723Z,29.70
2022-08-16T07:14:46.052Z,29.51
2022-08-16T07:15:50.782Z,30.03
2022-08-16T07:16:46.131Z,30.29
2022-08-16T07:17:47.584Z,30.56
2022-08-16T07:18:59.330Z,30.57
2022-08-16T07:20:02.962Z,30.29
2022-08-16T07:20:47.887Z,30.47
2022-08-16T07:22:00.029Z,30.64
2022-08-16T07:22:52.935Z,30.69
2022-08-16T07:23:46.408Z,30.64
2022-08-16T07:24:46.469Z,30.47
2022-08-16T07:25:46.489Z,30.57
2022-08-16T07:26:48.791Z,30.70
2022-08-16T07:27:47.107Z,30.94
2022-08-16T07:28:46.611Z,31.12
2022-08-16T07:29:46.651Z,31.10
2022-08-16T07:30:47.146Z,30.97
2022-08-16T07:31:46.949Z,31.07
2022-08-16T07:32:51.640Z,31.21
2022-08-16T07:34:48.844Z,31.70
2022-08-16T07:36:59.649Z,31.30
2022-08-16T07:37:59.583Z,30.88
2022-08-16T07:38:59.613Z,31.00
2022-08-16T07:39:59.701Z,31.18
2022-08-16T07:41:01.314Z,31.45
2022-08-16T07:41:59.729Z,31.81
2022-08-16T07:42:59.781Z,31.87
2022-08-16T07:44:50.374Z,31.87
2022-08-16T07:45:43.062Z,32.19
2022-08-16T07:47:42.504Z,32.19
2022-08-16T07:48:42.550Z,32.23
2022-08-16T08:05:17.362Z,32.65
2022-08-16T08:06:20.830Z,32.65
2022-08-16T08:07:17.445Z,32.56
2022-08-16T08:08:51.044Z,32.50
2022-08-16T08:09:17.537Z,32.67
2022-08-16T08:11:18.322Z,32.53
2022-08-16T08:12:32.221Z,32.42
2022-08-16T08:13:18.211Z,32.56
2022-08-16T08:14:29.847Z,32.61
2022-08-16T08:15:25.302Z,32.91
2022-08-16T08:16:18.820Z,32.93
2022-08-16T08:17:17.862Z,32.45
2022-08-16T08:19:18.148Z,32.54
2022-08-16T08:20:26.053Z,32.67
2022-08-16T08:21:18.028Z,32.86
2022-08-16T08:22:21.986Z,32.31
2022-08-16T08:23:18.113Z,31.90
2022-08-16T08:24:18.159Z,32.27
2022-08-16T08:25:18.395Z,32.53
2022-08-16T08:26:18.274Z,32.76
2022-08-16T08:27:23.028Z,33.01
2022-08-16T08:28:18.325Z,33.02
2022-08-16T08:29:22.618Z,33.02
2022-08-16T08:30:51.694Z,33.23
2022-08-16T08:31:18.840Z,33.61
2022-08-16T08:33:18.533Z,33.58
2022-08-16T09:26:45.604Z,34.91
2022-08-16T09:27:56.820Z,34.91
2022-08-16T09:29:15.638Z,34.99
2022-08-16T09:29:44.939Z,34.55
2022-08-16T09:30:44.407Z,34.39
2022-08-16T09:31:42.219Z,34.69
2022-08-16T09:32:42.260Z,34.56
2022-08-16T09:33:42.304Z,34.08
2022-08-16T09:34:42.342Z,34.27
2022-08-16T09:35:42.992Z,34.15
2022-08-16T09:36:46.290Z,34.43
2022-08-16T09:37:42.467Z,34.30
2022-08-16T09:38:42.507Z,34.37
2022-08-16T09:39:44.100Z,34.54
2022-08-16T09:40:46.284Z,34.87
2022-08-16T09:41:42.642Z,34.94
2022-08-16T09:42:56.044Z,34.75
2022-08-16T09:43:58.231Z,34.55
2022-08-16T09:45:10.847Z,34.64
2022-08-16T09:45:42.793Z,34.67
2022-08-16T09:46:49.156Z,34.67
2022-08-16T09:47:56.862Z,34.81
2022-08-16T09:48:44.708Z,34.84
2022-08-16T09:49:42.954Z,34.24
2022-08-16T09:50:42.995Z,33.83
2022-08-16T09:51:43.036Z,33.47
2022-08-16T09:52:47.804Z,33.66
2022-08-16T09:53:43.297Z,34.12
2022-08-16T09:54:44.317Z,34.41
2022-08-16T09:57:43.289Z,33.84
2022-08-16T09:59:05.727Z,33.90
2022-08-16T09:59:43.358Z,34.27
2022-08-16T10:00:44.781Z,34.14
2022-08-16T10:01:47.090Z,34.21
2022-08-16T10:02:44.469Z,34.21
2022-08-16T10:04:01.765Z,34.33
2022-08-16T10:05:43.598Z,34.64
2022-08-16T10:06:46.165Z,34.49
2022-08-16T10:07:44.912Z,34.63
2022-08-16T10:09:04.640Z,34.81
2022-08-16T10:09:53.665Z,34.86
2022-08-16T10:10:44.012Z,34.99
2022-08-16T10:15:41.659Z,34.66
2022-08-16T10:16:42.112Z,34.41
2022-08-16T10:17:41.645Z,34.17
2022-08-16T10:19:01.299Z,34.30
2022-08-16T10:19:41.722Z,34.49
2022-08-16T10:20:41.758Z,34.51
2022-08-16T10:21:41.802Z,34.52
2022-08-16T10:27:17.613Z,34.72
2022-08-16T10:27:17.873Z,34.77
2022-08-16T10:27:25.629Z,34.94
2022-08-16T10:28:29.071Z,34.59
2022-08-16T10:29:12.894Z,34.86
2022-08-16T10:30:25.325Z,35.01
2022-08-16T10:31:16.756Z,35.11
2022-08-16T10:32:13.011Z,35.16
2022-08-16T10:33:13.054Z,35.24
2022-08-16T10:34:31.368Z,35.38
2022-08-16T10:35:13.127Z,35.43
2022-08-16T10:36:13.172Z,35.23
2022-08-16T10:37:13.207Z,35.04
2022-08-16T10:38:27.469Z,34.87
2022-08-16T10:39:13.284Z,34.86
2022-08-16T10:43:18.435Z,34.10
2022-08-16T10:46:39.652Z,33.66
2022-08-16T10:48:27.724Z,33.66
2022-08-16T10:49:16.844Z,33.81
2022-08-16T10:50:19.013Z,33.92
2022-08-16T10:51:13.750Z,34.11
2022-08-16T10:54:04.919Z,34.43
2022-08-16T10:56:06.356Z,34.18
2022-08-16T10:57:04.437Z,34.39
2022-08-16T10:58:11.772Z,34.21
2022-08-16T11:00:05.196Z,34.17
2022-08-16T11:03:04.883Z,33.39
2022-08-16T11:05:04.531Z,33.68
2022-08-16T11:05:06.062Z,34.02
2022-08-16T11:06:06.330Z,34.06
2022-08-16T11:07:53.889Z,33.96
2022-08-16T11:09:21.710Z,34.11
2022-08-16T11:09:52.091Z,34.21
2022-08-16T11:11:04.783Z,34.15
2022-08-16T11:12:13.969Z,34.39
2022-08-16T11:12:52.925Z,34.71
2022-08-16T11:14:06.033Z,34.83
2022-08-16T11:15:55.731Z,35.13
2022-08-16T11:17:09.562Z,35.24
2022-08-16T11:18:48.321Z,35.12
2022-08-16T11:19:04.241Z,34.72
2022-08-16T11:20:52.508Z,34.49
2022-08-16T11:22:52.582Z,34.11
2022-08-16T11:23:57.788Z,34.17
2022-08-16T11:26:10.309Z,33.99
2022-08-16T11:27:22.979Z,33.78
2022-08-16T11:27:52.767Z,33.69
2022-08-16T11:29:53.211Z,33.68
2022-08-16T11:30:57.297Z,33.61
2022-08-16T11:31:53.983Z,33.29
2022-08-16T11:32:52.958Z,33.18
2022-08-16T11:33:53.361Z,33.06
2022-08-16T11:35:13.728Z,32.94
2022-08-16T11:36:27.243Z,32.96
2022-08-16T11:36:53.594Z,32.83
2022-08-16T11:38:46.917Z,32.65
2022-08-16T11:38:57.576Z,32.45
2022-08-16T11:39:59.628Z,32.24
2022-08-16T11:40:53.429Z,32.13
2022-08-16T11:41:53.295Z,32.19
2022-08-16T11:42:53.328Z,32.24
2022-08-16T11:43:53.361Z,32.27
2022-08-16T11:44:56.992Z,32.09
2022-08-16T11:45:54.565Z,31.72
2022-08-16T11:46:53.694Z,31.44
2022-08-16T11:47:53.505Z,31.47
2022-08-16T11:48:53.606Z,31.49
2022-08-16T11:49:53.679Z,31.44
2022-08-16T11:50:53.616Z,31.43
2022-08-16T11:51:53.652Z,31.49
2022-08-16T11:52:53.691Z,31.62
2022-08-16T11:53:54.529Z,31.88
2022-08-16T11:54:57.214Z,32.08
2022-08-16T11:55:54.608Z,32.17
2022-08-16T11:56:57.012Z,32.24
2022-08-16T11:57:57.355Z,32.34
2022-08-16T11:58:56.845Z,32.37
2022-08-16T11:59:53.943Z,32.42
2022-08-16T12:00:54.062Z,32.49
2022-08-16T12:01:59.297Z,32.38
2022-08-16T12:02:54.062Z,32.16
2022-08-16T12:03:54.145Z,32.00
2022-08-16T12:04:54.130Z,31.49
2022-08-16T12:05:54.382Z,31.36
2022-08-16T12:06:54.631Z,31.21
2022-08-16T12:07:54.227Z,31.19
2022-08-16T12:08:54.262Z,31.25
2022-08-16T12:09:54.297Z,31.40
2022-08-16T12:10:54.338Z,31.52
2022-08-16T12:11:54.372Z,31.71
2022-08-16T12:12:54.405Z,31.87
2022-08-16T12:13:54.445Z,32.03
2022-08-16T12:14:59.498Z,32.10
2022-08-16T12:15:54.512Z,32.05
2022-08-16T12:16:56.895Z,32.09
2022-08-16T12:17:54.582Z,32.24
2022-08-16T12:18:57.240Z,32.39
2022-08-16T12:19:54.686Z,32.46
2022-08-16T12:20:55.288Z,32.52
2022-08-16T12:21:59.237Z,32.54
2022-08-16T12:22:54.757Z,32.52
2022-08-16T12:23:54.793Z,32.53
2022-08-16T12:24:54.832Z,32.57
2022-08-16T12:25:54.863Z,32.53
2022-08-16T12:26:54.905Z,32.45
2022-08-16T12:27:54.937Z,32.49
2022-08-16T12:28:56.311Z,32.38
2022-08-16T12:29:55.008Z,32.34
2022-08-16T12:30:55.044Z,32.17
2022-08-16T12:32:01.241Z,32.28
2022-08-16T12:32:57.795Z,32.35
2022-08-16T12:33:57.685Z,32.50
2022-08-16T12:34:55.190Z,32.50
2022-08-16T12:35:55.220Z,32.52
2022-08-16T12:36:55.264Z,32.59
2022-08-16T12:37:56.778Z,32.57
2022-08-16T12:38:55.330Z,32.75
2022-08-16T12:39:55.402Z,32.76
2022-08-16T12:40:57.198Z,32.87
2022-08-16T12:41:55.446Z,32.87
2022-08-16T12:42:58.647Z,32.93
2022-08-16T12:43:57.004Z,32.75
2022-08-16T12:44:55.544Z,32.61
2022-08-16T12:45:55.576Z,32.50
2022-08-16T12:46:55.614Z,32.45
2022-08-16T12:48:16.045Z,32.43
2022-08-16T12:48:55.687Z,32.32
2022-08-16T12:49:55.723Z,32.27
2022-08-16T12:50:56.863Z,31.91
2022-08-16T12:51:58.363Z,31.80
2022-08-16T12:52:56.068Z,31.68
2022-08-16T12:53:55.859Z,31.77
2022-08-16T12:54:55.897Z,31.94
2022-08-16T12:55:55.931Z,32.01
2022-08-16T12:56:55.970Z,32.19
2022-08-16T12:57:58.739Z,32.37
2022-08-16T12:58:56.273Z,32.17
2022-08-16T12:59:56.137Z,32.35
2022-08-16T13:00:56.130Z,32.38
2022-08-16T13:01:58.529Z,32.42
2022-08-16T13:02:56.185Z,32.20
2022-08-16T13:04:11.518Z,32.12
2022-08-16T13:04:56.256Z,32.20
2022-08-16T13:05:56.288Z,32.37
2022-08-16T13:06:56.360Z,32.45
2022-08-16T13:07:56.668Z,32.52
2022-08-16T13:08:56.398Z,32.46
2022-08-16T13:09:56.432Z,32.57
2022-08-16T13:10:56.467Z,32.52
2022-08-16T13:11:59.386Z,32.56
2022-08-16T13:12:56.539Z,32.17
2022-08-16T13:13:56.572Z,32.28
2022-08-16T13:14:56.611Z,32.10
2022-08-16T13:16:03.656Z,32.09
2022-08-16T13:16:56.681Z,32.19
2022-08-16T13:17:56.714Z,32.13
2022-08-16T13:18:56.753Z,32.19
2022-08-16T13:20:07.097Z,32.24
2022-08-16T13:20:56.825Z,32.23
2022-08-16T13:21:56.857Z,32.08
2022-08-16T13:22:56.894Z,31.91
2022-08-16T13:23:56.927Z,31.80
2022-08-16T13:24:56.965Z,31.71
2022-08-16T13:25:56.998Z,31.70
2022-08-16T13:26:57.035Z,31.49
2022-08-16T13:28:01.507Z,31.50
2022-08-16T13:28:57.106Z,31.60
2022-08-16T13:29:57.580Z,31.53
2022-08-16T13:30:57.177Z,31.55
2022-08-16T13:31:57.209Z,31.67
2022-08-16T13:32:57.247Z,31.74
2022-08-16T13:33:58.958Z,31.78
2022-08-16T13:34:57.318Z,31.94
2022-08-16T13:35:58.017Z,32.09
2022-08-16T13:36:57.387Z,32.15
2022-08-16T13:37:57.419Z,32.17
2022-08-16T13:38:57.455Z,32.19
2022-08-16T13:39:57.574Z,32.38
2022-08-16T13:40:57.527Z,32.43
2022-08-16T13:41:57.558Z,32.49
2022-08-16T13:42:57.610Z,32.62
2022-08-16T13:43:59.536Z,32.61
2022-08-16T13:44:58.742Z,32.69
2022-08-16T13:45:57.701Z,32.64
2022-08-16T13:46:57.738Z,32.64
2022-08-16T13:47:57.771Z,32.57
2022-08-16T13:48:57.808Z,32.61
2022-08-16T13:49:57.843Z,32.69
2022-08-16T13:51:01.489Z,32.69
2022-08-16T13:51:57.912Z,32.72
2022-08-16T13:52:57.948Z,32.80
2022-08-16T13:54:02.786Z,32.71
2022-08-16T13:54:58.032Z,32.59
2022-08-16T13:55:58.916Z,32.62
2022-08-16T13:56:58.092Z,32.39
2022-08-16T13:58:37.471Z,32.25
2022-08-16T13:58:58.322Z,32.32
2022-08-16T13:59:58.195Z,32.34
2022-08-16T14:00:58.233Z,32.42
2022-08-16T14:01:59.807Z,32.35
2022-08-16T14:02:59.195Z,32.52
2022-08-16T14:03:58.336Z,32.52
2022-08-16T14:05:04.957Z,32.56
2022-08-16T14:05:58.407Z,32.47
2022-08-16T14:06:58.445Z,32.43
2022-08-16T14:07:58.491Z,32.34
2022-08-16T14:08:59.055Z,32.27
2022-08-16T14:09:58.550Z,32.17
2022-08-16T14:10:58.586Z,32.12
2022-08-16T14:11:58.632Z,32.06
2022-08-16T14:12:58.656Z,32.09
2022-08-16T14:13:58.691Z,32.08
2022-08-16T14:14:58.732Z,32.15
2022-08-16T14:15:58.788Z,32.08
2022-08-16T14:16:58.804Z,32.13
2022-08-16T14:18:15.610Z,32.01
2022-08-16T14:18:58.867Z,31.95
2022-08-16T14:20:00.017Z,31.82
2022-08-16T14:20:58.942Z,31.91
2022-08-16T14:22:14.091Z,31.82
2022-08-16T14:22:59.010Z,31.93
2022-08-16T14:23:59.043Z,31.82
2022-08-16T14:24:59.080Z,31.90
2022-08-16T14:25:59.114Z,31.90
2022-08-16T14:26:59.150Z,31.93
2022-08-16T14:27:59.184Z,32.01
2022-08-16T14:29:03.068Z,32.10
2022-08-16T14:29:59.255Z,32.10
2022-08-16T14:30:59.293Z,32.24
2022-08-16T14:31:59.324Z,32.16
2022-08-16T14:32:59.361Z,32.16
2022-08-16T14:33:59.394Z,32.13
2022-08-16T14:34:59.431Z,32.16
2022-08-16T14:35:59.465Z,32.23
2022-08-16T14:36:59.780Z,32.24
2022-08-16T14:37:59.536Z,32.28
2022-08-16T14:38:59.572Z,32.16
2022-08-16T14:39:59.704Z,32.10
2022-08-16T14:40:59.643Z,32.05
2022-08-16T14:41:59.676Z,32.06
2022-08-16T14:43:06.210Z,32.05
2022-08-16T14:43:59.746Z,32.00
2022-08-16T14:45:00.335Z,32.09
2022-08-16T14:45:59.816Z,32.10
2022-08-16T14:46:59.852Z,32.06
2022-08-16T14:47:59.892Z,32.08
2022-08-16T14:48:59.925Z,31.98
2022-08-16T14:49:59.956Z,32.01
2022-08-16T14:50:59.993Z,31.97
2022-08-16T14:52:00.085Z,31.91
2022-08-16T14:53:00.082Z,31.95
2022-08-16T14:54:00.140Z,31.91
2022-08-16T14:55:00.132Z,31.90
2022-08-16T14:56:00.168Z,31.80
2022-08-16T14:57:00.201Z,31.80
2022-08-16T14:58:00.235Z,31.63
2022-08-16T14:59:00.272Z,31.63
2022-08-16T15:00:05.639Z,31.58
2022-08-16T15:01:00.377Z,31.55
2022-08-16T15:02:01.053Z,31.55
2022-08-16T15:03:00.443Z,31.56
2022-08-16T15:04:00.448Z,31.55
2022-08-16T15:05:00.486Z,31.52
2022-08-16T15:06:00.518Z,31.53
2022-08-16T15:07:00.551Z,31.56
2022-08-16T15:08:00.583Z,31.55
2022-08-16T15:09:00.622Z,31.55
2022-08-16T15:10:02.120Z,31.56
2022-08-16T15:11:00.691Z,31.49
2022-08-16T15:12:00.725Z,31.40
2022-08-16T15:13:00.764Z,31.41
2022-08-16T15:14:00.793Z,31.47
2022-08-16T15:15:00.830Z,31.49
2022-08-16T15:16:02.996Z,31.47
2022-08-16T15:17:00.901Z,31.52
2022-08-16T15:18:01.704Z,31.58
2022-08-16T15:19:00.970Z,31.53
2022-08-16T15:20:01.028Z,31.49
2022-08-16T15:21:01.060Z,31.53
2022-08-16T15:22:01.073Z,31.50
2022-08-16T15:23:01.107Z,31.60
2022-08-16T15:24:01.147Z,31.68
2022-08-16T15:25:01.177Z,31.60
2022-08-16T15:26:02.829Z,31.63
2022-08-16T15:27:01.248Z,31.67
2022-08-16T15:28:01.284Z,31.63
2022-08-16T15:29:01.319Z,31.65
2022-08-16T15:30:01.354Z,31.65
2022-08-16T15:31:04.010Z,31.63
2022-08-16T15:32:01.494Z,31.63
2022-08-16T15:33:01.462Z,31.65
2022-08-16T15:34:01.494Z,31.68
2022-08-16T15:35:03.349Z,31.68
2022-08-16T15:36:01.564Z,31.70
2022-08-16T15:37:01.596Z,31.67
2022-08-16T15:38:02.007Z,31.62
2022-08-16T15:39:05.781Z,31.50
2022-08-16T15:40:01.804Z,31.43
2022-08-16T15:41:01.812Z,31.41
2022-08-16T15:42:01.774Z,31.52
2022-08-16T15:43:01.807Z,31.50
2022-08-16T15:44:05.021Z,31.62
2022-08-16T15:45:01.876Z,31.60
2022-08-16T15:46:01.913Z,31.60
2022-08-16T15:47:02.883Z,31.60
2022-08-16T15:48:05.442Z,31.59
2022-08-16T15:49:02.015Z,31.56
2022-08-16T15:50:02.146Z,31.59
2022-08-16T15:51:02.090Z,31.50
2022-08-16T15:52:03.027Z,31.52
2022-08-16T15:53:02.156Z,31.56
2022-08-16T15:54:20.970Z,31.53
2022-08-16T15:55:13.403Z,31.60
2022-08-16T15:56:02.263Z,31.58
2022-08-16T15:57:11.418Z,31.67
2022-08-16T15:58:35.579Z,31.71
2022-08-16T15:59:02.366Z,31.74
2022-08-16T16:00:14.432Z,31.58
2022-08-16T16:01:02.470Z,31.68
2022-08-16T16:02:02.470Z,31.63
2022-08-16T16:03:02.515Z,31.53
2022-08-16T16:04:02.542Z,31.60
2022-08-16T16:05:02.589Z,31.53
2022-08-16T16:06:02.614Z,31.53
2022-08-16T16:07:02.646Z,31.52
2022-08-16T16:08:11.256Z,31.52
2022-08-16T16:09:02.717Z,31.37
2022-08-16T16:10:02.754Z,31.36
2022-08-16T16:11:03.199Z,31.33
2022-08-16T16:12:12.012Z,31.23
2022-08-16T16:13:02.934Z,31.19
2022-08-16T16:14:02.891Z,31.15
2022-08-16T16:15:02.937Z,31.22
2022-08-16T16:16:02.960Z,31.19
2022-08-16T16:17:02.995Z,31.16
2022-08-16T16:18:05.421Z,31.10
2022-08-16T16:19:03.118Z,31.07
2022-08-16T16:20:03.116Z,31.01
2022-08-16T16:26:55.723Z,31.04
2022-08-16T16:32:40.090Z,30.77
2022-08-16T16:33:40.141Z,30.82
2022-08-16T16:34:40.158Z,30.78
2022-08-16T16:35:40.204Z,30.81
2022-08-16T16:36:40.228Z,30.79
2022-08-16T16:37:40.263Z,30.70
2022-08-16T16:38:42.794Z,30.81
2022-08-16T16:39:40.413Z,30.71
2022-08-16T16:40:46.184Z,30.71
2022-08-16T16:41:40.401Z,30.67
2022-08-16T16:42:44.294Z,30.59
2022-08-16T16:43:41.012Z,30.59
2022-08-16T16:45:23.056Z,30.47
2022-08-16T16:46:40.292Z,30.49
2022-08-16T16:47:23.125Z,30.56
2022-08-16T16:48:23.164Z,30.49
2022-08-16T16:49:23.191Z,30.44
2022-08-16T16:50:24.443Z,30.40
2022-08-16T16:51:23.263Z,30.42
2022-08-16T16:52:43.422Z,30.40
2022-08-16T16:53:23.330Z,30.48
2022-08-16T16:54:28.296Z,30.42
2022-08-16T16:55:23.398Z,30.40
2022-08-16T16:56:27.805Z,30.31
2022-08-16T16:57:23.467Z,30.31
2022-08-16T16:58:35.189Z,30.24
2022-08-16T16:59:23.538Z,30.25
2022-08-16T17:00:37.704Z,30.21
2022-08-16T17:01:34.885Z,30.19
2022-08-16T17:02:41.317Z,30.07
2022-08-16T17:03:23.728Z,30.13
2022-08-16T17:04:31.255Z,30.06
2022-08-16T17:05:23.741Z,30.13
2022-08-16T17:06:23.774Z,30.18
2022-08-16T17:07:24.175Z,30.04
2022-08-16T17:08:23.847Z,30.04
2022-08-16T17:09:23.879Z,30.03
2022-08-16T17:10:45.821Z,30.04
2022-08-16T17:11:23.962Z,29.95
2022-08-16T17:12:44.485Z,29.98
2022-08-16T17:13:24.027Z,29.97
2022-08-16T17:14:32.404Z,30.11
2022-08-16T17:15:24.404Z,30.04
2022-08-16T17:16:24.118Z,30.04
2022-08-16T17:17:24.171Z,30.06
2022-08-16T17:19:14.496Z,30.06
2022-08-16T17:19:24.808Z,30.04
2022-08-16T17:20:25.214Z,30.07
2022-08-16T17:21:24.299Z,30.04
2022-08-16T17:22:24.325Z,29.89
2022-08-16T17:23:58.532Z,30.00
2022-08-16T17:24:31.314Z,30.00
2022-08-16T17:25:24.429Z,29.98
2022-08-16T17:26:30.097Z,30.02
2022-08-16T17:27:33.270Z,30.02
2022-08-16T17:28:58.154Z,30.02
2022-08-16T17:29:30.752Z,30.04
2022-08-16T17:30:29.370Z,30.04
2022-08-16T17:32:34.130Z,29.94
2022-08-16T17:33:27.453Z,30.02
2022-08-16T17:34:30.848Z,29.94
2022-08-16T17:35:33.934Z,29.88
2022-08-16T17:36:36.622Z,29.87
2022-08-16T17:37:42.637Z,29.81
2022-08-16T17:38:38.911Z,29.77
2022-08-16T17:39:29.840Z,29.73
2022-08-16T17:40:45.710Z,29.72
2022-08-16T17:41:27.793Z,29.76
2022-08-16T17:42:27.758Z,29.70
2022-08-16T17:43:27.793Z,29.69
2022-08-16T17:44:27.836Z,29.58